sensor_id;sensor_type;location;lat;lon;timestamp;P1;durP1;ratioP1;P2;durP2;ratioP2
16031;SDS011;8120;48.308;8.914;2022-09-02T00:00:04;2.93;;;2.50;;
16031;SDS011;8120;48.308;8.914;2022-09-02T00:02:33;4.20;;;2.70;;
16031;SDS011;8120;48.308;8.914;2022-09-02T00:05:02;4.93;;;2.97;;
16031;SDS011;8120;48.308;8.914;2022-09-02T00:07:31;3.10;;;2.50;;
16031;SDS011;8120;48.308;8.914;2022-09-02T00:09:59;3.87;;;2.80;;
16031;SDS011;8120;48.308;8.914;2022-09-02T00:12:28;4.17;;;2.53;;
16031;SDS011;8120;48.308;8.914;2022-09-02T00:14:56;3.30;;;2.40;;
16031;SDS011;8120;48.308;8.914;2022-09-02T00:17:24;2.80;;;2.40;;
16031;SDS011;8120;48.308;8.914;2022-09-02T00:19:53;5.97;;;3.20;;
16031;SDS011;8120;48.308;8.914;2022-09-02T00:22:21;3.63;;;2.50;;
16031;SDS011;8120;48.308;8.914;2022-09-02T00:24:49;2.83;;;2.53;;
16031;SDS011;8120;48.308;8.914;2022-09-02T00:27:17;4.13;;;2.67;;
16031;SDS011;8120;48.308;8.914;2022-09-02T00:29:46;5.27;;;2.80;;
16031;SDS011;8120;48.308;8.914;2022-09-02T00:32:14;3.97;;;2.47;;
16031;SDS011;8120;48.308;8.914;2022-09-02T00:34:42;7.23;;;3.33;;
16031;SDS011;8120;48.308;8.914;2022-09-02T00:37:10;4.03;;;2.63;;
16031;SDS011;8120;48.308;8.914;2022-09-02T00:39:38;3.30;;;2.70;;
16031;SDS011;8120;48.308;8.914;2022-09-02T00:42:06;5.50;;;3.13;;
16031;SDS011;8120;48.308;8.914;2022-09-02T00:44:34;3.03;;;2.40;;
16031;SDS011;8120;48.308;8.914;2022-09-02T00:47:04;3.13;;;2.17;;
16031;SDS011;8120;48.308;8.914;2022-09-02T00:49:32;3.37;;;2.80;;
16031;SDS011;8120;48.308;8.914;2022-09-02T00:52:06;3.63;;;2.73;;
16031;SDS011;8120;48.308;8.914;2022-09-02T00:54:38;3.50;;;2.70;;
16031;SDS011;8120;48.308;8.914;2022-09-02T00:57:10;4.30;;;2.63;;
16031;SDS011;8120;48.308;8.914;2022-09-02T00:59:45;3.93;;;2.87;;
16031;SDS011;8120;48.308;8.914;2022-09-02T01:02:22;4.27;;;2.93;;
16031;SDS011;8120;48.308;8.914;2022-09-02T01:04:51;3.93;;;2.70;;
16031;SDS011;8120;48.308;8.914;2022-09-02T01:07:22;2.77;;;2.37;;
16031;SDS011;8120;48.308;8.914;2022-09-02T01:09:51;3.10;;;2.30;;
16031;SDS011;8120;48.308;8.914;2022-09-02T01:12:20;4.23;;;2.70;;
16031;SDS011;8120;48.308;8.914;2022-09-02T01:14:48;2.60;;;2.40;;
16031;SDS011;8120;48.308;8.914;2022-09-02T01:17:16;3.70;;;2.60;;
16031;SDS011;8120;48.308;8.914;2022-09-02T01:19:46;2.83;;;2.43;;
16031;SDS011;8120;48.308;8.914;2022-09-02T01:22:20;2.77;;;2.57;;
16031;SDS011;8120;48.308;8.914;2022-09-02T01:24:50;3.23;;;2.50;;
16031;SDS011;8120;48.308;8.914;2022-09-02T01:27:19;3.13;;;2.43;;
16031;SDS011;8120;48.308;8.914;2022-09-02T01:29:49;3.40;;;2.13;;
16031;SDS011;8120;48.308;8.914;2022-09-02T01:32:18;4.27;;;2.60;;
16031;SDS011;8120;48.308;8.914;2022-09-02T01:34:47;2.97;;;2.30;;
16031;SDS011;8120;48.308;8.914;2022-09-02T01:37:15;3.07;;;2.37;;
16031;SDS011;8120;48.308;8.914;2022-09-02T01:39:44;3.53;;;2.20;;
16031;SDS011;8120;48.308;8.914;2022-09-02T01:42:12;4.27;;;2.33;;
16031;SDS011;8120;48.308;8.914;2022-09-02T01:44:40;3.17;;;2.27;;
16031;SDS011;8120;48.308;8.914;2022-09-02T01:47:10;2.27;;;2.00;;
16031;SDS011;8120;48.308;8.914;2022-09-02T01:49:38;3.27;;;2.40;;
16031;SDS011;8120;48.308;8.914;2022-09-02T01:52:07;2.60;;;2.07;;
16031;SDS011;8120;48.308;8.914;2022-09-02T01:54:36;2.90;;;2.20;;
16031;SDS011;8120;48.308;8.914;2022-09-02T01:57:05;2.50;;;1.90;;
16031;SDS011;8120;48.308;8.914;2022-09-02T01:59:33;4.20;;;2.23;;
16031;SDS011;8120;48.308;8.914;2022-09-02T02:02:01;3.63;;;1.80;;
16031;SDS011;8120;48.308;8.914;2022-09-02T02:04:30;2.83;;;2.10;;
16031;SDS011;8120;48.308;8.914;2022-09-02T02:06:58;2.87;;;2.13;;
16031;SDS011;8120;48.308;8.914;2022-09-02T02:09:28;2.77;;;2.13;;
16031;SDS011;8120;48.308;8.914;2022-09-02T02:11:56;2.87;;;2.10;;
16031;SDS011;8120;48.308;8.914;2022-09-02T02:14:25;3.83;;;2.47;;
16031;SDS011;8120;48.308;8.914;2022-09-02T02:16:53;3.90;;;2.10;;
16031;SDS011;8120;48.308;8.914;2022-09-02T02:19:21;2.73;;;2.27;;
16031;SDS011;8120;48.308;8.914;2022-09-02T02:21:48;3.10;;;2.00;;
16031;SDS011;8120;48.308;8.914;2022-09-02T02:24:16;2.57;;;2.17;;
16031;SDS011;8120;48.308;8.914;2022-09-02T02:26:44;2.53;;;2.10;;
16031;SDS011;8120;48.308;8.914;2022-09-02T02:29:13;1.97;;;1.77;;
16031;SDS011;8120;48.308;8.914;2022-09-02T02:31:42;3.10;;;2.40;;
16031;SDS011;8120;48.308;8.914;2022-09-02T02:34:11;2.90;;;2.20;;
16031;SDS011;8120;48.308;8.914;2022-09-02T02:36:39;2.23;;;2.03;;
16031;SDS011;8120;48.308;8.914;2022-09-02T02:39:08;3.23;;;2.07;;
16031;SDS011;8120;48.308;8.914;2022-09-02T02:41:38;2.87;;;2.10;;
16031;SDS011;8120;48.308;8.914;2022-09-02T02:44:10;2.93;;;1.90;;
16031;SDS011;8120;48.308;8.914;2022-09-02T02:46:37;2.80;;;2.00;;
16031;SDS011;8120;48.308;8.914;2022-09-02T02:49:07;2.73;;;2.00;;
16031;SDS011;8120;48.308;8.914;2022-09-02T02:51:35;2.50;;;2.10;;
16031;SDS011;8120;48.308;8.914;2022-09-02T02:54:03;3.00;;;2.20;;
16031;SDS011;8120;48.308;8.914;2022-09-02T02:56:31;2.87;;;2.13;;
16031;SDS011;8120;48.308;8.914;2022-09-02T02:58:59;6.47;;;2.40;;
16031;SDS011;8120;48.308;8.914;2022-09-02T03:01:28;2.67;;;2.20;;
16031;SDS011;8120;48.308;8.914;2022-09-02T03:03:56;3.67;;;2.47;;
16031;SDS011;8120;48.308;8.914;2022-09-02T03:06:26;3.13;;;1.83;;
16031;SDS011;8120;48.308;8.914;2022-09-02T03:08:54;2.53;;;2.07;;
16031;SDS011;8120;48.308;8.914;2022-09-02T03:11:22;3.27;;;1.90;;
16031;SDS011;8120;48.308;8.914;2022-09-02T03:13:53;3.03;;;2.10;;
16031;SDS011;8120;48.308;8.914;2022-09-02T03:16:21;3.20;;;1.90;;
16031;SDS011;8120;48.308;8.914;2022-09-02T03:18:50;2.60;;;2.00;;
16031;SDS011;8120;48.308;8.914;2022-09-02T03:21:18;3.57;;;2.17;;
16031;SDS011;8120;48.308;8.914;2022-09-02T03:23:47;4.33;;;2.00;;
16031;SDS011;8120;48.308;8.914;2022-09-02T03:26:16;2.47;;;2.17;;
16031;SDS011;8120;48.308;8.914;2022-09-02T03:28:46;3.87;;;2.10;;
16031;SDS011;8120;48.308;8.914;2022-09-02T03:31:16;2.67;;;2.37;;
16031;SDS011;8120;48.308;8.914;2022-09-02T03:33:46;2.73;;;2.13;;
16031;SDS011;8120;48.308;8.914;2022-09-02T03:36:18;2.33;;;2.13;;
16031;SDS011;8120;48.308;8.914;2022-09-02T03:38:49;3.03;;;2.13;;
16031;SDS011;8120;48.308;8.914;2022-09-02T03:41:17;2.57;;;2.20;;
16031;SDS011;8120;48.308;8.914;2022-09-02T03:43:45;3.20;;;2.10;;
16031;SDS011;8120;48.308;8.914;2022-09-02T03:46:13;3.27;;;2.07;;
16031;SDS011;8120;48.308;8.914;2022-09-02T03:48:41;3.10;;;2.20;;
16031;SDS011;8120;48.308;8.914;2022-09-02T03:51:10;3.30;;;2.53;;
16031;SDS011;8120;48.308;8.914;2022-09-02T03:53:38;2.93;;;2.47;;
16031;SDS011;8120;48.308;8.914;2022-09-02T03:56:08;5.40;;;2.80;;
16031;SDS011;8120;48.308;8.914;2022-09-02T03:58:38;4.13;;;2.60;;
16031;SDS011;8120;48.308;8.914;2022-09-02T04:01:11;4.20;;;2.37;;
16031;SDS011;8120;48.308;8.914;2022-09-02T04:03:41;3.30;;;2.67;;
16031;SDS011;8120;48.308;8.914;2022-09-02T04:06:09;4.67;;;3.03;;
16031;SDS011;8120;48.308;8.914;2022-09-02T04:08:38;4.27;;;2.60;;
16031;SDS011;8120;48.308;8.914;2022-09-02T04:11:07;6.43;;;3.07;;
16031;SDS011;8120;48.308;8.914;2022-09-02T04:13:36;2.83;;;2.40;;
16031;SDS011;8120;48.308;8.914;2022-09-02T04:16:05;3.27;;;2.50;;
16031;SDS011;8120;48.308;8.914;2022-09-02T04:18:35;4.00;;;3.27;;
16031;SDS011;8120;48.308;8.914;2022-09-02T04:21:03;3.13;;;2.40;;
16031;SDS011;8120;48.308;8.914;2022-09-02T04:23:32;5.23;;;2.40;;
16031;SDS011;8120;48.308;8.914;2022-09-02T04:26:02;4.07;;;2.67;;
16031;SDS011;8120;48.308;8.914;2022-09-02T04:28:32;5.63;;;2.83;;
16031;SDS011;8120;48.308;8.914;2022-09-02T04:31:02;2.93;;;2.30;;
16031;SDS011;8120;48.308;8.914;2022-09-02T04:33:31;4.47;;;2.60;;
16031;SDS011;8120;48.308;8.914;2022-09-02T04:36:02;6.40;;;2.83;;
16031;SDS011;8120;48.308;8.914;2022-09-02T04:38:31;5.03;;;2.80;;
16031;SDS011;8120;48.308;8.914;2022-09-02T04:40:59;4.60;;;2.70;;
16031;SDS011;8120;48.308;8.914;2022-09-02T04:43:33;3.07;;;2.37;;
16031;SDS011;8120;48.308;8.914;2022-09-02T04:46:02;3.67;;;2.67;;
16031;SDS011;8120;48.308;8.914;2022-09-02T04:48:31;2.53;;;2.03;;
16031;SDS011;8120;48.308;8.914;2022-09-02T04:51:02;3.57;;;2.40;;
16031;SDS011;8120;48.308;8.914;2022-09-02T04:53:31;5.10;;;2.60;;
16031;SDS011;8120;48.308;8.914;2022-09-02T04:56:01;3.47;;;2.73;;
16031;SDS011;8120;48.308;8.914;2022-09-02T04:58:30;4.97;;;2.90;;
16031;SDS011;8120;48.308;8.914;2022-09-02T05:01:04;5.20;;;2.93;;
16031;SDS011;8120;48.308;8.914;2022-09-02T05:03:32;3.73;;;2.83;;
16031;SDS011;8120;48.308;8.914;2022-09-02T05:06:01;5.23;;;2.93;;
16031;SDS011;8120;48.308;8.914;2022-09-02T05:08:30;3.67;;;2.93;;
16031;SDS011;8120;48.308;8.914;2022-09-02T05:11:05;6.03;;;2.63;;
16031;SDS011;8120;48.308;8.914;2022-09-02T05:13:34;4.10;;;2.90;;
16031;SDS011;8120;48.308;8.914;2022-09-02T05:16:02;5.93;;;2.37;;
16031;SDS011;8120;48.308;8.914;2022-09-02T05:18:30;3.77;;;2.33;;
16031;SDS011;8120;48.308;8.914;2022-09-02T05:20:58;5.93;;;2.77;;
16031;SDS011;8120;48.308;8.914;2022-09-02T05:23:26;5.87;;;2.83;;
16031;SDS011;8120;48.308;8.914;2022-09-02T05:25:54;4.03;;;2.80;;
16031;SDS011;8120;48.308;8.914;2022-09-02T05:28:21;4.37;;;2.47;;
16031;SDS011;8120;48.308;8.914;2022-09-02T05:30:51;3.63;;;2.70;;
16031;SDS011;8120;48.308;8.914;2022-09-02T05:33:19;4.07;;;2.43;;
16031;SDS011;8120;48.308;8.914;2022-09-02T05:35:48;5.53;;;2.97;;
16031;SDS011;8120;48.308;8.914;2022-09-02T05:38:18;4.40;;;2.43;;
16031;SDS011;8120;48.308;8.914;2022-09-02T05:40:46;3.27;;;2.47;;
16031;SDS011;8120;48.308;8.914;2022-09-02T05:43:14;7.20;;;3.03;;
16031;SDS011;8120;48.308;8.914;2022-09-02T05:45:42;4.93;;;2.20;;
16031;SDS011;8120;48.308;8.914;2022-09-02T05:48:11;6.27;;;3.13;;
16031;SDS011;8120;48.308;8.914;2022-09-02T05:50:53;7.37;;;3.47;;
16031;SDS011;8120;48.308;8.914;2022-09-02T05:53:23;4.13;;;2.60;;
16031;SDS011;8120;48.308;8.914;2022-09-02T05:55:52;5.17;;;2.90;;
16031;SDS011;8120;48.308;8.914;2022-09-02T05:58:20;4.60;;;2.90;;
16031;SDS011;8120;48.308;8.914;2022-09-02T06:00:48;5.43;;;2.80;;
16031;SDS011;8120;48.308;8.914;2022-09-02T06:03:17;5.53;;;2.87;;
16031;SDS011;8120;48.308;8.914;2022-09-02T06:05:52;11.77;;;3.47;;
16031;SDS011;8120;48.308;8.914;2022-09-02T06:08:21;5.43;;;3.23;;
16031;SDS011;8120;48.308;8.914;2022-09-02T06:10:49;7.50;;;3.57;;
16031;SDS011;8120;48.308;8.914;2022-09-02T06:13:17;7.20;;;3.63;;
16031;SDS011;8120;48.308;8.914;2022-09-02T06:15:47;5.50;;;2.83;;
16031;SDS011;8120;48.308;8.914;2022-09-02T06:18:16;8.40;;;3.07;;
16031;SDS011;8120;48.308;8.914;2022-09-02T06:20:46;7.13;;;3.70;;
16031;SDS011;8120;48.308;8.914;2022-09-02T06:23:14;7.33;;;3.60;;
16031;SDS011;8120;48.308;8.914;2022-09-02T06:25:44;4.33;;;3.20;;
16031;SDS011;8120;48.308;8.914;2022-09-02T06:28:13;7.27;;;3.60;;
16031;SDS011;8120;48.308;8.914;2022-09-02T06:30:43;7.53;;;3.33;;
16031;SDS011;8120;48.308;8.914;2022-09-02T06:33:12;6.43;;;3.20;;
16031;SDS011;8120;48.308;8.914;2022-09-02T06:35:42;4.73;;;3.33;;
16031;SDS011;8120;48.308;8.914;2022-09-02T06:38:12;5.50;;;2.80;;
16031;SDS011;8120;48.308;8.914;2022-09-02T06:40:45;5.13;;;2.60;;
16031;SDS011;8120;48.308;8.914;2022-09-02T06:43:14;5.60;;;2.90;;
16031;SDS011;8120;48.308;8.914;2022-09-02T06:45:43;9.77;;;3.33;;
16031;SDS011;8120;48.308;8.914;2022-09-02T06:48:11;5.60;;;3.00;;
16031;SDS011;8120;48.308;8.914;2022-09-02T06:50:40;5.30;;;3.40;;
16031;SDS011;8120;48.308;8.914;2022-09-02T06:53:10;5.53;;;3.43;;
16031;SDS011;8120;48.308;8.914;2022-09-02T06:55:40;5.33;;;2.90;;
16031;SDS011;8120;48.308;8.914;2022-09-02T06:58:09;5.37;;;2.83;;
16031;SDS011;8120;48.308;8.914;2022-09-02T07:00:38;5.03;;;3.10;;
16031;SDS011;8120;48.308;8.914;2022-09-02T07:03:07;3.83;;;2.70;;
16031;SDS011;8120;48.308;8.914;2022-09-02T07:06:02;4.60;;;2.73;;
16031;SDS011;8120;48.308;8.914;2022-09-02T07:08:34;4.77;;;2.73;;
16031;SDS011;8120;48.308;8.914;2022-09-02T07:11:04;8.57;;;3.27;;
16031;SDS011;8120;48.308;8.914;2022-09-02T07:13:33;2.23;;;1.77;;
16031;SDS011;8120;48.308;8.914;2022-09-02T07:16:01;3.67;;;2.30;;
16031;SDS011;8120;48.308;8.914;2022-09-02T07:18:32;2.57;;;1.67;;
16031;SDS011;8120;48.308;8.914;2022-09-02T07:21:00;2.40;;;1.80;;
16031;SDS011;8120;48.308;8.914;2022-09-02T07:23:30;2.87;;;1.77;;
16031;SDS011;8120;48.308;8.914;2022-09-02T07:26:00;2.47;;;2.00;;
16031;SDS011;8120;48.308;8.914;2022-09-02T07:28:28;2.80;;;2.10;;
16031;SDS011;8120;48.308;8.914;2022-09-02T07:30:56;3.57;;;2.20;;
16031;SDS011;8120;48.308;8.914;2022-09-02T07:33:25;2.93;;;1.83;;
16031;SDS011;8120;48.308;8.914;2022-09-02T07:35:53;2.53;;;1.80;;
16031;SDS011;8120;48.308;8.914;2022-09-02T07:38:22;3.50;;;2.10;;
16031;SDS011;8120;48.308;8.914;2022-09-02T07:40:49;4.20;;;2.50;;
16031;SDS011;8120;48.308;8.914;2022-09-02T07:43:23;2.47;;;2.00;;
16031;SDS011;8120;48.308;8.914;2022-09-02T07:45:52;2.80;;;2.00;;
16031;SDS011;8120;48.308;8.914;2022-09-02T07:48:20;4.20;;;1.80;;
16031;SDS011;8120;48.308;8.914;2022-09-02T07:50:48;2.83;;;2.00;;
16031;SDS011;8120;48.308;8.914;2022-09-02T07:53:17;1.87;;;1.47;;
16031;SDS011;8120;48.308;8.914;2022-09-02T07:55:47;3.90;;;1.77;;
16031;SDS011;8120;48.308;8.914;2022-09-02T07:58:17;2.27;;;1.90;;
16031;SDS011;8120;48.308;8.914;2022-09-02T08:00:47;2.37;;;1.80;;
16031;SDS011;8120;48.308;8.914;2022-09-02T08:03:16;3.00;;;1.67;;
16031;SDS011;8120;48.308;8.914;2022-09-02T08:05:44;2.13;;;1.77;;
16031;SDS011;8120;48.308;8.914;2022-09-02T08:08:13;2.17;;;1.70;;
16031;SDS011;8120;48.308;8.914;2022-09-02T08:10:42;5.10;;;1.83;;
16031;SDS011;8120;48.308;8.914;2022-09-02T08:13:11;3.00;;;1.93;;
16031;SDS011;8120;48.308;8.914;2022-09-02T08:15:39;2.63;;;1.80;;
16031;SDS011;8120;48.308;8.914;2022-09-02T08:18:07;1.70;;;1.60;;
16031;SDS011;8120;48.308;8.914;2022-09-02T08:20:47;2.70;;;1.70;;
16031;SDS011;8120;48.308;8.914;2022-09-02T08:23:15;2.07;;;1.77;;
16031;SDS011;8120;48.308;8.914;2022-09-02T08:26:02;2.87;;;1.90;;
16031;SDS011;8120;48.308;8.914;2022-09-02T08:28:32;3.50;;;1.90;;
16031;SDS011;8120;48.308;8.914;2022-09-02T08:31:03;3.20;;;1.97;;
16031;SDS011;8120;48.308;8.914;2022-09-02T08:33:31;1.77;;;1.60;;
16031;SDS011;8120;48.308;8.914;2022-09-02T08:36:00;2.10;;;1.80;;
16031;SDS011;8120;48.308;8.914;2022-09-02T08:38:30;2.23;;;1.93;;
16031;SDS011;8120;48.308;8.914;2022-09-02T08:40:58;2.77;;;1.90;;
16031;SDS011;8120;48.308;8.914;2022-09-02T08:43:27;2.40;;;1.80;;
16031;SDS011;8120;48.308;8.914;2022-09-02T08:46:05;3.10;;;1.83;;
16031;SDS011;8120;48.308;8.914;2022-09-02T08:48:38;2.80;;;1.73;;
16031;SDS011;8120;48.308;8.914;2022-09-02T08:51:12;3.30;;;1.80;;
16031;SDS011;8120;48.308;8.914;2022-09-02T08:53:45;3.73;;;1.87;;
16031;SDS011;8120;48.308;8.914;2022-09-02T08:56:17;1.93;;;1.80;;
16031;SDS011;8120;48.308;8.914;2022-09-02T08:58:49;2.10;;;1.90;;
16031;SDS011;8120;48.308;8.914;2022-09-02T09:01:24;2.57;;;2.00;;
16031;SDS011;8120;48.308;8.914;2022-09-02T09:04:06;3.20;;;2.03;;
16031;SDS011;8120;48.308;8.914;2022-09-02T09:06:48;1.50;;;1.40;;
16031;SDS011;8120;48.308;8.914;2022-09-02T09:09:26;1.70;;;1.53;;
16031;SDS011;8120;48.308;8.914;2022-09-02T09:12:05;3.20;;;1.87;;
16031;SDS011;8120;48.308;8.914;2022-09-02T09:14:41;3.30;;;2.00;;
16031;SDS011;8120;48.308;8.914;2022-09-02T09:17:16;2.97;;;1.77;;
16031;SDS011;8120;48.308;8.914;2022-09-02T09:19:53;2.50;;;2.00;;
16031;SDS011;8120;48.308;8.914;2022-09-02T09:22:27;2.17;;;1.73;;
16031;SDS011;8120;48.308;8.914;2022-09-02T09:24:58;3.03;;;1.93;;
16031;SDS011;8120;48.308;8.914;2022-09-02T09:27:26;3.03;;;1.90;;
16031;SDS011;8120;48.308;8.914;2022-09-02T09:29:55;2.17;;;1.90;;
16031;SDS011;8120;48.308;8.914;2022-09-02T09:32:24;2.63;;;1.80;;
16031;SDS011;8120;48.308;8.914;2022-09-02T09:34:59;4.13;;;2.30;;
16031;SDS011;8120;48.308;8.914;2022-09-02T09:37:29;3.57;;;2.30;;
16031;SDS011;8120;48.308;8.914;2022-09-02T09:40:19;2.17;;;1.73;;
16031;SDS011;8120;48.308;8.914;2022-09-02T09:43:12;3.40;;;2.47;;
16031;SDS011;8120;48.308;8.914;2022-09-02T09:45:43;2.13;;;1.93;;
16031;SDS011;8120;48.308;8.914;2022-09-02T09:48:19;3.73;;;2.43;;
16031;SDS011;8120;48.308;8.914;2022-09-02T09:51:08;2.77;;;1.80;;
16031;SDS011;8120;48.308;8.914;2022-09-02T09:53:38;2.70;;;1.97;;
16031;SDS011;8120;48.308;8.914;2022-09-02T09:56:19;2.33;;;2.10;;
16031;SDS011;8120;48.308;8.914;2022-09-02T09:58:52;4.60;;;2.33;;
16031;SDS011;8120;48.308;8.914;2022-09-02T10:01:22;1.90;;;1.80;;
16031;SDS011;8120;48.308;8.914;2022-09-02T10:03:54;2.43;;;1.90;;
16031;SDS011;8120;48.308;8.914;2022-09-02T10:06:23;3.00;;;1.97;;
16031;SDS011;8120;48.308;8.914;2022-09-02T10:09:02;2.40;;;1.67;;
16031;SDS011;8120;48.308;8.914;2022-09-02T10:11:32;1.97;;;1.77;;
16031;SDS011;8120;48.308;8.914;2022-09-02T10:14:02;4.13;;;2.13;;
16031;SDS011;8120;48.308;8.914;2022-09-02T10:16:41;2.53;;;1.73;;
16031;SDS011;8120;48.308;8.914;2022-09-02T10:19:21;2.73;;;2.17;;
16031;SDS011;8120;48.308;8.914;2022-09-02T10:21:59;3.00;;;1.97;;
16031;SDS011;8120;48.308;8.914;2022-09-02T10:24:45;2.43;;;1.63;;
16031;SDS011;8120;48.308;8.914;2022-09-02T10:27:29;2.60;;;1.90;;
16031;SDS011;8120;48.308;8.914;2022-09-02T10:30:04;2.67;;;2.17;;
16031;SDS011;8120;48.308;8.914;2022-09-02T10:32:39;2.77;;;2.20;;
16031;SDS011;8120;48.308;8.914;2022-09-02T10:35:16;2.30;;;1.80;;
16031;SDS011;8120;48.308;8.914;2022-09-02T10:37:57;2.37;;;1.80;;
16031;SDS011;8120;48.308;8.914;2022-09-02T10:40:33;2.40;;;2.00;;
16031;SDS011;8120;48.308;8.914;2022-09-02T10:43:07;3.20;;;1.90;;
16031;SDS011;8120;48.308;8.914;2022-09-02T10:45:40;4.87;;;2.10;;
16031;SDS011;8120;48.308;8.914;2022-09-02T10:48:18;2.27;;;1.90;;
16031;SDS011;8120;48.308;8.914;2022-09-02T10:50:59;6.03;;;2.80;;
16031;SDS011;8120;48.308;8.914;2022-09-02T10:53:39;2.65;;;2.00;;
16031;SDS011;8120;48.308;8.914;2022-09-02T10:56:15;2.20;;;2.00;;
16031;SDS011;8120;48.308;8.914;2022-09-02T10:58:48;3.47;;;2.00;;
16031;SDS011;8120;48.308;8.914;2022-09-02T11:01:21;2.20;;;2.00;;
16031;SDS011;8120;48.308;8.914;2022-09-02T11:04:02;2.67;;;1.97;;
16031;SDS011;8120;48.308;8.914;2022-09-02T11:06:35;2.30;;;2.10;;
16031;SDS011;8120;48.308;8.914;2022-09-02T11:09:28;2.83;;;1.97;;
16031;SDS011;8120;48.308;8.914;2022-09-02T11:12:01;2.03;;;1.80;;
16031;SDS011;8120;48.308;8.914;2022-09-02T11:14:34;2.23;;;1.90;;
16031;SDS011;8120;48.308;8.914;2022-09-02T11:17:13;2.93;;;2.20;;
16031;SDS011;8120;48.308;8.914;2022-09-02T11:19:48;2.37;;;1.77;;
16031;SDS011;8120;48.308;8.914;2022-09-02T11:22:22;2.90;;;2.00;;
16031;SDS011;8120;48.308;8.914;2022-09-02T11:24:55;2.90;;;1.97;;
16031;SDS011;8120;48.308;8.914;2022-09-02T11:27:29;3.53;;;2.00;;
16031;SDS011;8120;48.308;8.914;2022-09-02T11:30:10;1.93;;;1.73;;
16031;SDS011;8120;48.308;8.914;2022-09-02T11:32:41;2.20;;;1.60;;
16031;SDS011;8120;48.308;8.914;2022-09-02T11:35:16;2.50;;;1.97;;
16031;SDS011;8120;48.308;8.914;2022-09-02T11:37:47;2.20;;;2.00;;
16031;SDS011;8120;48.308;8.914;2022-09-02T11:40:20;3.00;;;2.00;;
16031;SDS011;8120;48.308;8.914;2022-09-02T11:43:03;2.97;;;1.90;;
16031;SDS011;8120;48.308;8.914;2022-09-02T11:49:06;2.87;;;2.10;;
16031;SDS011;8120;48.308;8.914;2022-09-02T11:52:15;2.03;;;1.83;;
16031;SDS011;8120;48.308;8.914;2022-09-02T11:55:03;2.53;;;2.00;;
16031;SDS011;8120;48.308;8.914;2022-09-02T11:57:34;2.13;;;1.90;;
16031;SDS011;8120;48.308;8.914;2022-09-02T12:00:07;2.50;;;1.97;;
16031;SDS011;8120;48.308;8.914;2022-09-02T12:02:40;1.70;;;1.60;;
16031;SDS011;8120;48.308;8.914;2022-09-02T12:11:42;2.13;;;1.92;;
16031;SDS011;8120;48.308;8.914;2022-09-02T12:17:33;2.30;;;2.07;;
16031;SDS011;8120;48.308;8.914;2022-09-02T12:20:07;2.90;;;2.08;;
16031;SDS011;8120;48.308;8.914;2022-09-02T12:22:36;2.23;;;2.03;;
16031;SDS011;8120;48.308;8.914;2022-09-02T12:28:16;2.53;;;1.90;;
16031;SDS011;8120;48.308;8.914;2022-09-02T12:33:48;2.33;;;1.90;;
16031;SDS011;8120;48.308;8.914;2022-09-02T12:42:23;2.30;;;2.07;;
16031;SDS011;8120;48.308;8.914;2022-09-02T12:45:00;2.03;;;1.77;;
16031;SDS011;8120;48.308;8.914;2022-09-02T12:47:37;1.90;;;1.73;;
16031;SDS011;8120;48.308;8.914;2022-09-02T12:50:17;3.47;;;2.10;;
16031;SDS011;8120;48.308;8.914;2022-09-02T12:52:50;2.08;;;1.98;;
16031;SDS011;8120;48.308;8.914;2022-09-02T12:55:21;4.07;;;2.30;;
16031;SDS011;8120;48.308;8.914;2022-09-02T12:57:54;3.72;;;2.10;;
16031;SDS011;8120;48.308;8.914;2022-09-02T13:00:33;2.85;;;2.20;;
16031;SDS011;8120;48.308;8.914;2022-09-02T13:03:13;3.60;;;2.20;;
16031;SDS011;8120;48.308;8.914;2022-09-02T13:05:55;3.85;;;2.00;;
16031;SDS011;8120;48.308;8.914;2022-09-02T13:08:33;3.00;;;2.30;;
16031;SDS011;8120;48.308;8.914;2022-09-02T13:14:28;2.60;;;1.87;;
16031;SDS011;8120;48.308;8.914;2022-09-02T13:17:19;3.13;;;2.20;;
16031;SDS011;8120;48.308;8.914;2022-09-02T13:20:24;3.63;;;2.22;;
16031;SDS011;8120;48.308;8.914;2022-09-02T13:23:14;3.30;;;2.10;;
16031;SDS011;8120;48.308;8.914;2022-09-02T13:26:09;2.63;;;2.20;;
16031;SDS011;8120;48.308;8.914;2022-09-02T13:29:23;3.97;;;2.00;;
16031;SDS011;8120;48.308;8.914;2022-09-02T13:32:11;3.17;;;2.43;;
16031;SDS011;8120;48.308;8.914;2022-09-02T13:34:41;2.90;;;2.30;;
16031;SDS011;8120;48.308;8.914;2022-09-02T13:37:28;5.00;;;2.30;;
16031;SDS011;8120;48.308;8.914;2022-09-02T13:39:58;3.17;;;2.70;;
16031;SDS011;8120;48.308;8.914;2022-09-02T13:42:31;4.27;;;2.00;;
16031;SDS011;8120;48.308;8.914;2022-09-02T13:45:10;3.03;;;2.00;;
16031;SDS011;8120;48.308;8.914;2022-09-02T13:47:40;3.17;;;2.10;;
16031;SDS011;8120;48.308;8.914;2022-09-02T13:50:10;4.37;;;2.40;;
16031;SDS011;8120;48.308;8.914;2022-09-02T13:52:40;3.33;;;2.20;;
16031;SDS011;8120;48.308;8.914;2022-09-02T13:55:30;2.83;;;2.30;;
16031;SDS011;8120;48.308;8.914;2022-09-02T13:57:59;2.33;;;2.13;;
16031;SDS011;8120;48.308;8.914;2022-09-02T14:00:32;3.53;;;2.53;;
16031;SDS011;8120;48.308;8.914;2022-09-02T14:03:03;3.00;;;2.23;;
16031;SDS011;8120;48.308;8.914;2022-09-02T14:05:34;3.93;;;2.23;;
16031;SDS011;8120;48.308;8.914;2022-09-02T14:08:07;2.63;;;2.40;;
16031;SDS011;8120;48.308;8.914;2022-09-02T14:10:39;3.70;;;2.10;;
16031;SDS011;8120;48.308;8.914;2022-09-02T14:13:08;2.78;;;2.20;;
16031;SDS011;8120;48.308;8.914;2022-09-02T14:15:38;3.07;;;2.13;;
16031;SDS011;8120;48.308;8.914;2022-09-02T14:18:10;3.63;;;2.90;;
16031;SDS011;8120;48.308;8.914;2022-09-02T14:20:57;2.40;;;2.22;;
16031;SDS011;8120;48.308;8.914;2022-09-02T14:23:27;2.97;;;2.10;;
16031;SDS011;8120;48.308;8.914;2022-09-02T14:25:58;2.33;;;2.13;;
16031;SDS011;8120;48.308;8.914;2022-09-02T14:28:28;2.40;;;2.20;;
16031;SDS011;8120;48.308;8.914;2022-09-02T14:31:01;3.00;;;2.40;;
16031;SDS011;8120;48.308;8.914;2022-09-02T14:33:37;3.33;;;2.37;;
16031;SDS011;8120;48.308;8.914;2022-09-02T14:36:07;4.90;;;2.40;;
16031;SDS011;8120;48.308;8.914;2022-09-02T14:39:06;3.65;;;2.35;;
16031;SDS011;8120;48.308;8.914;2022-09-02T14:41:41;2.30;;;2.10;;
16031;SDS011;8120;48.308;8.914;2022-09-02T14:44:14;3.17;;;2.30;;
16031;SDS011;8120;48.308;8.914;2022-09-02T14:46:46;2.55;;;2.10;;
16031;SDS011;8120;48.308;8.914;2022-09-02T14:49:19;2.17;;;1.98;;
16031;SDS011;8120;48.308;8.914;2022-09-02T14:51:49;3.40;;;2.25;;
16031;SDS011;8120;48.308;8.914;2022-09-02T14:57:05;3.90;;;2.22;;
16031;SDS011;8120;48.308;8.914;2022-09-02T14:59:47;5.47;;;2.53;;
16031;SDS011;8120;48.308;8.914;2022-09-02T15:02:23;2.75;;;2.00;;
16031;SDS011;8120;48.308;8.914;2022-09-02T15:04:57;2.33;;;2.10;;
16031;SDS011;8120;48.308;8.914;2022-09-02T15:07:26;2.10;;;2.00;;
16031;SDS011;8120;48.308;8.914;2022-09-02T15:09:54;4.13;;;2.00;;
16031;SDS011;8120;48.308;8.914;2022-09-02T15:12:23;2.58;;;2.00;;
16031;SDS011;8120;48.308;8.914;2022-09-02T15:14:55;2.35;;;2.15;;
16031;SDS011;8120;48.308;8.914;2022-09-02T15:17:25;4.50;;;2.50;;
16031;SDS011;8120;48.308;8.914;2022-09-02T15:19:53;2.67;;;2.17;;
16031;SDS011;8120;48.308;8.914;2022-09-02T15:22:22;2.40;;;2.20;;
16031;SDS011;8120;48.308;8.914;2022-09-02T15:24:50;6.90;;;2.53;;
16031;SDS011;8120;48.308;8.914;2022-09-02T15:27:18;3.57;;;2.40;;
16031;SDS011;8120;48.308;8.914;2022-09-02T15:29:47;2.78;;;2.20;;
16031;SDS011;8120;48.308;8.914;2022-09-02T15:32:15;2.63;;;2.20;;
16031;SDS011;8120;48.308;8.914;2022-09-02T15:34:44;2.30;;;2.10;;
16031;SDS011;8120;48.308;8.914;2022-09-02T15:37:12;2.95;;;2.35;;
16031;SDS011;8120;48.308;8.914;2022-09-02T15:39:39;4.47;;;2.47;;
16031;SDS011;8120;48.308;8.914;2022-09-02T15:42:07;2.75;;;2.45;;
16031;SDS011;8120;48.308;8.914;2022-09-02T15:44:35;3.60;;;2.50;;
16031;SDS011;8120;48.308;8.914;2022-09-02T15:47:03;2.77;;;2.10;;
16031;SDS011;8120;48.308;8.914;2022-09-02T15:49:31;3.65;;;2.40;;
16031;SDS011;8120;48.308;8.914;2022-09-02T15:52:00;4.13;;;2.43;;
16031;SDS011;8120;48.308;8.914;2022-09-02T15:54:28;3.10;;;2.23;;
16031;SDS011;8120;48.308;8.914;2022-09-02T15:56:57;2.77;;;2.10;;
16031;SDS011;8120;48.308;8.914;2022-09-02T15:59:25;2.40;;;1.97;;